Greenbrier Valley Airport
KLWB : now visible

Airfield :











YOU CAN JOIN US ON...

 
LOGIN :

Register | Disclaimer

   EN    FR    IT 

 









Legend :    VFR   Marginal VFR   IFR   Intensive IFR   Very Intensive IFR
Visi :
Ceiling :
>= 8 km
>= 3000ft
5 to 8 km
1000 to 3000 ft
1500m to 5 km
500 to 1000 ft
800 to 1500m
200 to 500 ft
< 800m
< 200 ft
Symbols :   Thunderstorms  Fog  Heavy snow  Heavy precipitations  Wind > 20 kt







- Airport Elevation : 2302 ft


KLWB - Greenbrier Valley

CURRENT METAR :
  • 212115Z AUTO 34006KT 10SM CLR 28/14 A3027 RMK AO2 T02770137

EXPIRED METARs :
  • 212055Z AUTO 29006KT 10SM SCT080 28/15 A3027 RMK AO2 T02800148
  • 212035Z AUTO 29007KT 10SM CLR 28/15 A3028 RMK AO2 T02790149
  • 212015Z AUTO 28007KT 10SM CLR 28/15 A3028 RMK AO2 T02750151
  • 211955Z AUTO 31005KT 10SM CLR 27/15 A3028 RMK AO2 T02720147
  • 211935Z AUTO 29008KT 260V320 10SM SCT050 SCT070 SCT100 27/15 A3029 RMK AO2 T02740149
  • 211915Z AUTO 33010KT 10SM BKN050 BKN070 OVC100 27/15 A3029 RMK AO2 T02730151
  • 211855Z AUTO 18003KT 10SM SCT048 SCT060 BKN070 27/15 A3029 RMK AO2 T02690149
  • 211835Z AUTO 27004KT 10SM BKN050 BKN070 BKN110 26/16 A3030 RMK AO2 T02620160

TAF KLWB
Valid from the 21 at 18:00 until the 22 at 18:00 UTC


211732Z 2118/2218 VRB04KT P6SM VCSH SCT035 BKN050
FM212300 00000KT P6SM SCT050
FM220800 00000KT 1/4SM FG OVC001
FM221400 VRB03KT P6SM SCT025
No reported NOTAMs for that airfield.



MET'MAP, your aeronautical weather chart ! - Copyright ORBIFLY December 2007 - Disclaimer

ORBIFLY MET'MAP TEAM :

Programming & Development : Alexandra Zaïnal
Concept & Development : Baudouin d'Aumeries
Co-Development & Prog : Marc-Olivier Méhu
Technical & hardware support : Manuel Goepfert

Contact : metmap@orbifly.com




SOURCES & CREDITS :

   NOAA       Earth
Advisory